createdAt,value
2018-09-13T00:01:02.894Z,100439.00
2018-09-13T00:03:30.776Z,100441.91
2018-09-13T00:05:58.264Z,100446.04
2018-09-13T00:08:26.510Z,100441.09
2018-09-13T00:10:53.988Z,100434.95
2018-09-13T00:13:21.935Z,100433.19
2018-09-13T00:15:49.421Z,100432.14
2018-09-13T00:18:16.875Z,100430.45
2018-09-13T00:20:44.327Z,100423.73
2018-09-13T00:23:12.276Z,100424.09
2018-09-13T00:25:39.748Z,100421.05
2018-09-13T00:28:07.242Z,100421.19
2018-09-13T00:30:34.715Z,100419.50
2018-09-13T00:33:02.523Z,100417.08
2018-09-13T00:35:31.004Z,100416.95
2018-09-13T00:37:58.491Z,100411.23
2018-09-13T00:40:26.088Z,100410.02
2018-09-13T00:42:53.969Z,100411.14
2018-09-13T00:45:21.492Z,100412.48
2018-09-13T00:47:48.990Z,100403.73
2018-09-13T00:50:16.498Z,100413.14
2018-09-13T00:52:44.448Z,100405.73
2018-09-13T00:55:11.961Z,100404.03
2018-09-13T00:57:39.608Z,100404.52
2018-09-13T01:00:07.684Z,100409.89
2018-09-13T01:02:35.236Z,100417.39
2018-09-13T01:05:02.744Z,100409.98
2018-09-13T01:07:30.323Z,100412.96
2018-09-13T01:09:58.229Z,100410.06
2018-09-13T01:12:25.867Z,100411.89
2018-09-13T01:14:53.383Z,100407.03
2018-09-13T01:17:21.361Z,100411.05
2018-09-13T01:19:49.411Z,100413.53
2018-09-13T01:22:17.195Z,100414.36
2018-09-13T01:24:45.295Z,100401.58
2018-09-13T01:27:12.768Z,100404.95
2018-09-13T01:29:40.304Z,100404.13
2018-09-13T01:32:07.784Z,100411.11
2018-09-13T01:34:35.602Z,100405.73
2018-09-13T01:37:03.099Z,100411.41
2018-09-13T01:39:30.583Z,100413.87
2018-09-13T01:41:58.046Z,100409.63
2018-09-13T01:44:25.791Z,100413.44
2018-09-13T01:46:53.270Z,100409.41
2018-09-13T01:49:21.751Z,100401.53
2018-09-13T01:51:49.203Z,100398.84
2018-09-13T01:54:17.011Z,100388.58
2018-09-13T01:56:44.483Z,100388.23
2018-09-13T01:59:11.934Z,100377.84
2018-09-13T02:01:39.843Z,100381.05
2018-09-13T02:04:07.304Z,100379.32
2018-09-13T02:06:34.761Z,100378.36
2018-09-13T02:09:02.275Z,100379.70
2018-09-13T02:11:30.088Z,100377.50
2018-09-13T02:13:57.541Z,100370.66
2018-09-13T02:16:24.994Z,100369.66
2018-09-13T02:18:52.556Z,100368.31
2018-09-13T02:21:20.324Z,100367.45
2018-09-13T02:23:47.776Z,100363.73
2018-09-13T02:26:15.242Z,100378.97
2018-09-13T02:28:43.199Z,100374.25
2018-09-13T02:31:10.670Z,100373.91
2018-09-13T02:33:38.224Z,100362.47
2018-09-13T02:36:05.758Z,100362.95
2018-09-13T02:38:33.699Z,100360.27
2018-09-13T02:41:01.298Z,100365.55
2018-09-13T02:43:28.760Z,100357.06
2018-09-13T02:45:56.257Z,100355.24
2018-09-13T02:48:23.730Z,100350.35
2018-09-13T02:50:51.198Z,100349.17
2018-09-13T02:53:19.309Z,100348.45
2018-09-13T02:55:46.786Z,100349.31
2018-09-13T02:58:14.318Z,100355.55
2018-09-13T03:00:42.239Z,100346.92
2018-09-13T03:03:09.746Z,100343.59
2018-09-13T03:05:37.237Z,100340.70
2018-09-13T03:08:04.721Z,100341.05
2018-09-13T03:10:32.557Z,100337.15
2018-09-13T03:13:00.041Z,100338.31
2018-09-13T03:15:27.524Z,100335.55
2018-09-13T03:17:55.453Z,100333.16
2018-09-13T03:20:22.927Z,100326.28
2018-09-13T03:22:50.498Z,100330.88
2018-09-13T03:25:17.979Z,100343.81
2018-09-13T03:27:45.973Z,100336.06
2018-09-13T03:30:15.024Z,100345.94
2018-09-13T03:32:42.511Z,100346.23
2018-09-13T03:35:10.439Z,100338.18
2018-09-13T03:37:37.907Z,100336.63
2018-09-13T03:40:05.370Z,100332.03
2018-09-13T03:42:32.840Z,100331.30
2018-09-13T03:45:00.669Z,100334.60
2018-09-13T03:47:28.366Z,100326.20
2018-09-13T03:49:55.884Z,100333.42
2018-09-13T03:52:23.956Z,100326.72
2018-09-13T03:54:51.464Z,100328.06
2018-09-13T03:57:18.958Z,100324.86
2018-09-13T03:59:46.429Z,100325.72
2018-09-13T04:02:14.272Z,100320.09
2018-09-13T04:04:41.791Z,100317.41
2018-09-13T04:07:09.307Z,100316.55
2018-09-13T04:09:36.774Z,100313.38
2018-09-13T04:12:04.639Z,100313.73
2018-09-13T04:14:32.159Z,100313.59
2018-09-13T04:16:59.811Z,100317.63
2018-09-13T04:19:43.962Z,100328.36
2018-09-13T04:22:12.418Z,100322.88
2018-09-13T04:24:40.333Z,100327.67
2018-09-13T04:27:07.844Z,100330.18
2018-09-13T04:29:35.375Z,100327.49
2018-09-13T04:32:02.994Z,100323.30
2018-09-13T04:34:30.902Z,100326.84
2018-09-13T04:36:58.371Z,100318.50
2018-09-13T04:39:25.900Z,100317.89
2018-09-13T04:41:53.864Z,100319.36
2018-09-13T04:44:21.318Z,100320.57
2018-09-13T04:46:48.805Z,100322.88
2018-09-13T04:49:16.909Z,100322.05
2018-09-13T04:51:44.440Z,100323.39
2018-09-13T04:54:12.002Z,100328.75
2018-09-13T04:56:39.936Z,100338.39
2018-09-13T04:59:07.774Z,100341.56
2018-09-13T05:01:35.351Z,100330.34
2018-09-13T05:04:04.238Z,100329.83
2018-09-13T05:06:31.760Z,100326.55
2018-09-13T05:08:59.271Z,100318.10
2018-09-13T05:11:27.114Z,100330.31
2018-09-13T05:13:54.598Z,100331.30
2018-09-13T05:16:23.027Z,100329.45
2018-09-13T05:18:50.982Z,100338.84
2018-09-13T05:21:18.520Z,100336.32
2018-09-13T05:23:45.978Z,100339.27
2018-09-13T05:26:14.598Z,100338.44
2018-09-13T05:28:42.077Z,100338.66
2018-09-13T05:31:09.574Z,100341.04
2018-09-13T05:33:37.517Z,100344.55
2018-09-13T05:36:04.987Z,100348.09
2018-09-13T05:38:32.448Z,100347.23
2018-09-13T05:41:00.456Z,100345.28
2018-09-13T05:43:27.918Z,100345.55
2018-09-13T05:45:55.438Z,100350.56
2018-09-13T05:48:23.628Z,100344.98
2018-09-13T05:50:51.169Z,100350.00
2018-09-13T05:53:19.048Z,100351.85
2018-09-13T05:55:46.560Z,100351.56
2018-09-13T05:58:14.145Z,100354.94
2018-09-13T06:00:42.167Z,100354.75
2018-09-13T06:03:09.728Z,100358.91
2018-09-13T06:05:40.125Z,100357.78
2018-09-13T06:08:09.514Z,100360.47
2018-09-13T06:10:37.260Z,100355.71
2018-09-13T06:13:04.878Z,100357.56
2018-09-13T06:15:32.710Z,100357.56
2018-09-13T06:18:00.254Z,100364.62
2018-09-13T06:20:28.917Z,100358.27
2018-09-13T06:22:56.885Z,100359.61
2018-09-13T06:25:26.273Z,100355.58
2018-09-13T06:27:53.761Z,100358.05
2018-09-13T06:30:21.658Z,100359.73
2018-09-13T06:32:49.238Z,100368.00
2018-09-13T06:35:16.782Z,100364.67
2018-09-13T06:37:45.407Z,100366.19
2018-09-13T06:40:13.510Z,100365.32
2018-09-13T06:42:41.067Z,100365.67
2018-09-13T06:45:10.319Z,100363.58
2018-09-13T06:47:37.851Z,100374.09
2018-09-13T06:50:05.370Z,100378.11
2018-09-13T06:52:33.283Z,100371.63
2018-09-13T06:55:00.790Z,100374.31
2018-09-13T06:57:28.426Z,100377.95
2018-09-13T06:59:57.271Z,100377.34
2018-09-13T07:02:24.812Z,100378.17
2018-09-13T07:04:53.037Z,100382.06
2018-09-13T07:07:20.978Z,100376.92
2018-09-13T07:09:48.485Z,100376.97
2018-09-13T07:12:15.998Z,100372.81
2018-09-13T07:14:43.998Z,100382.67
2018-09-13T07:17:11.499Z,100380.82
2018-09-13T07:19:39.646Z,100370.44
2018-09-13T07:22:07.629Z,100377.70
2018-09-13T07:24:36.033Z,100372.91
2018-09-13T07:27:04.217Z,100373.77
2018-09-13T07:29:32.076Z,100379.83
2018-09-13T07:31:59.636Z,100375.45
2018-09-13T07:34:27.691Z,100384.16
2018-09-13T07:36:55.687Z,100379.27
2018-09-13T07:39:23.667Z,100379.78
2018-09-13T07:41:56.439Z,100373.25
2018-09-13T07:44:25.549Z,100383.37
2018-09-13T07:46:53.134Z,100377.36
2018-09-13T07:49:20.746Z,100377.58
2018-09-13T07:51:48.614Z,100383.99
2018-09-13T07:54:16.150Z,100389.45
2018-09-13T07:56:43.716Z,100386.81
2018-09-13T07:59:11.615Z,100394.78
2018-09-13T08:01:39.106Z,100394.00
2018-09-13T08:04:06.644Z,100395.91
2018-09-13T08:06:34.487Z,100395.56
2018-09-13T08:09:02.281Z,100394.73
2018-09-13T08:11:29.952Z,100390.70
2018-09-13T08:13:58.475Z,100398.59
2018-09-13T08:16:26.092Z,100397.77
2018-09-13T08:18:53.672Z,100394.95
2018-09-13T08:21:22.231Z,100399.32
2018-09-13T08:23:49.758Z,100403.56
2018-09-13T08:26:19.001Z,100407.21
2018-09-13T08:28:47.775Z,100408.55
2018-09-13T08:31:15.312Z,100413.66
2018-09-13T08:33:43.028Z,100413.70
2018-09-13T08:36:11.540Z,100415.39
2018-09-13T08:38:39.106Z,100412.70
2018-09-13T08:41:07.424Z,100417.12
2018-09-13T08:43:35.383Z,100421.55
2018-09-13T08:46:03.783Z,100410.02
2018-09-13T08:48:31.381Z,100413.78
2018-09-13T08:50:59.238Z,100411.65
2018-09-13T08:53:27.435Z,100422.09
2018-09-13T08:55:55.077Z,100420.61
2018-09-13T08:58:23.589Z,100419.83
2018-09-13T09:00:51.558Z,100416.36
2018-09-13T09:03:19.145Z,100417.19
2018-09-13T09:05:47.993Z,100420.73
2018-09-13T09:08:15.552Z,100421.08
2018-09-13T09:10:45.238Z,100423.08
2018-09-13T09:13:15.139Z,100421.00
2018-09-13T09:15:46.835Z,100418.83
2018-09-13T09:18:14.594Z,100413.45
2018-09-13T09:20:42.438Z,100409.08
2018-09-13T09:23:09.931Z,100398.03
2018-09-13T09:25:37.439Z,100398.84
2018-09-13T09:28:05.358Z,100408.02
2018-09-13T09:30:32.921Z,100409.81
2018-09-13T09:33:00.467Z,100406.13
2018-09-13T09:35:28.486Z,100405.30
2018-09-13T09:37:56.810Z,100399.27
2018-09-13T09:40:24.367Z,100401.47
2018-09-13T09:42:52.340Z,100404.16
2018-09-13T09:45:19.894Z,100399.78
2018-09-13T09:47:47.394Z,100406.16
2018-09-13T09:50:14.967Z,100410.44
2018-09-13T09:52:43.124Z,100407.64
2018-09-13T09:55:11.690Z,100406.64
2018-09-13T09:57:39.338Z,100408.16
2018-09-13T10:00:07.916Z,100410.84
2018-09-13T10:02:35.948Z,100409.05
2018-09-13T10:05:03.515Z,100409.42
2018-09-13T10:07:31.955Z,100411.03
2018-09-13T10:09:59.971Z,100407.89
2018-09-13T10:12:27.622Z,100408.23
2018-09-13T10:15:00.288Z,100408.44
2018-09-13T10:17:33.348Z,100403.60
2018-09-13T10:20:05.880Z,100408.73
2018-09-13T10:22:38.589Z,100397.05
2018-09-13T10:25:11.526Z,100405.17
2018-09-13T10:27:44.911Z,100410.84
2018-09-13T10:30:17.477Z,100407.13
2018-09-13T10:32:50.483Z,100409.81
2018-09-13T10:35:23.194Z,100405.60
2018-09-13T10:37:56.231Z,100400.13
2018-09-13T10:40:28.933Z,100404.80
2018-09-13T10:43:01.716Z,100408.02
2018-09-13T10:45:34.752Z,100409.50
2018-09-13T10:48:07.532Z,100409.84
2018-09-13T10:50:44.082Z,100402.28
2018-09-13T10:53:17.067Z,100405.80
2018-09-13T10:55:44.710Z,100410.76
2018-09-13T10:58:12.253Z,100411.67
2018-09-13T11:00:40.140Z,100411.92
2018-09-13T11:03:08.324Z,100398.93
2018-09-13T11:05:35.949Z,100399.21
2018-09-13T11:08:03.876Z,100408.45
2018-09-13T11:10:31.512Z,100405.05
2018-09-13T11:13:03.578Z,100402.91
2018-09-13T11:15:35.275Z,100408.92
2018-09-13T11:18:02.909Z,100400.13
2018-09-13T11:20:30.676Z,100404.45
2018-09-13T11:22:58.776Z,100402.83
2018-09-13T11:25:26.549Z,100400.82
2018-09-13T11:27:54.674Z,100398.47
2018-09-13T11:30:22.715Z,100398.34
2018-09-13T11:32:51.517Z,100392.34
2018-09-13T11:35:19.134Z,100396.52
2018-09-13T11:37:47.085Z,100398.20
2018-09-13T11:40:14.776Z,100391.47
2018-09-13T11:42:42.779Z,100389.64
2018-09-13T11:45:10.915Z,100380.91
2018-09-13T11:47:38.690Z,100383.19
2018-09-13T11:50:06.418Z,100380.00
2018-09-13T11:52:35.009Z,100376.42
2018-09-13T11:55:02.704Z,100375.00
2018-09-13T11:57:30.286Z,100375.24
2018-09-13T11:59:58.175Z,100370.61
2018-09-13T12:02:26.771Z,100374.52
2018-09-13T12:04:54.348Z,100375.56
2018-09-13T12:07:22.256Z,100379.77
2018-09-13T12:09:49.787Z,100382.31
2018-09-13T12:12:18.009Z,100377.41
2018-09-13T12:14:46.019Z,100385.00
2018-09-13T12:17:13.721Z,100377.73
2018-09-13T12:19:41.411Z,100385.48
2018-09-13T12:22:09.444Z,100384.09
2018-09-13T12:24:37.035Z,100378.32
2018-09-13T12:27:04.665Z,100379.57
2018-09-13T12:29:32.643Z,100381.14
2018-09-13T12:32:00.835Z,100383.05
2018-09-13T12:34:28.502Z,100384.99
2018-09-13T12:36:56.431Z,100379.53
2018-09-13T12:39:23.935Z,100382.55
2018-09-13T12:41:51.583Z,100386.13
2018-09-13T12:44:19.697Z,100387.02
2018-09-13T12:46:47.287Z,100386.45
2018-09-13T12:49:17.864Z,100384.50
2018-09-13T12:51:46.379Z,100380.85
2018-09-13T12:54:13.946Z,100379.12
2018-09-13T12:56:42.195Z,100384.49
2018-09-13T12:59:10.506Z,100372.17
2018-09-13T13:01:38.099Z,100380.59
2018-09-13T13:04:05.660Z,100375.08
2018-09-13T13:06:33.661Z,100366.56
2018-09-13T13:09:01.215Z,100367.44
2018-09-13T13:11:28.910Z,100362.97
2018-09-13T13:13:56.851Z,100361.41
2018-09-13T13:16:24.486Z,100368.98
2018-09-13T13:18:52.064Z,100364.36
2018-09-13T13:21:20.828Z,100359.86
2018-09-13T13:23:48.447Z,100358.86
2018-09-13T13:26:17.279Z,100352.84
2018-09-13T13:28:44.855Z,100350.18
2018-09-13T13:31:12.374Z,100345.80
2018-09-13T13:33:40.318Z,100345.09
2018-09-13T13:36:07.893Z,100340.19
2018-09-13T13:38:35.501Z,100335.06
2018-09-13T13:41:03.565Z,100332.16
2018-09-13T13:43:31.134Z,100328.92
2018-09-13T13:45:59.753Z,100329.58
2018-09-13T13:48:27.813Z,100325.72
2018-09-13T13:50:55.404Z,100325.59
2018-09-13T13:53:24.092Z,100322.25
2018-09-13T13:55:53.147Z,100328.20
2018-09-13T13:58:21.289Z,100331.42
2018-09-13T14:00:50.703Z,100333.97
2018-09-13T14:03:19.800Z,100334.83
2018-09-13T14:05:47.298Z,100336.17
2018-09-13T14:08:14.924Z,100333.97
2018-09-13T14:10:42.788Z,100331.28
2018-09-13T14:13:10.347Z,100336.34
2018-09-13T14:15:37.947Z,100329.55
2018-09-13T14:18:05.770Z,100338.33
2018-09-13T14:20:33.427Z,100336.12
2018-09-13T14:23:00.914Z,100344.22
2018-09-13T14:25:28.912Z,100336.13
2018-09-13T14:27:56.540Z,100335.28
2018-09-13T14:30:24.086Z,100334.60
2018-09-13T14:32:52.076Z,100328.20
2018-09-13T14:35:21.833Z,100326.55
2018-09-13T14:37:49.420Z,100323.51
2018-09-13T14:40:17.346Z,100318.91
2018-09-13T14:42:44.839Z,100313.14
2018-09-13T14:45:12.381Z,100311.77
2018-09-13T14:47:40.332Z,100304.11
2018-09-13T14:50:07.896Z,100299.81
2018-09-13T14:52:35.501Z,100296.78
2018-09-13T14:55:03.463Z,100294.93
2018-09-13T14:57:31.017Z,100293.58
2018-09-13T14:59:58.579Z,100292.55
2018-09-13T15:02:26.565Z,100294.14
2018-09-13T15:04:54.167Z,100294.02
2018-09-13T15:07:22.452Z,100294.03
2018-09-13T15:09:50.652Z,100294.44
2018-09-13T15:12:18.735Z,100294.30
2018-09-13T15:14:46.414Z,100292.45
2018-09-13T15:17:14.356Z,100294.30
2018-09-13T15:19:43.702Z,100298.31
2018-09-13T15:22:11.424Z,100289.02
2018-09-13T15:24:39.427Z,100292.41
2018-09-13T15:27:06.894Z,100293.59
2018-09-13T15:29:34.402Z,100290.38
2018-09-13T15:32:02.393Z,100297.81
2018-09-13T15:34:29.920Z,100298.16
2018-09-13T15:36:57.478Z,100290.09
2018-09-13T15:39:25.411Z,100291.08
2018-09-13T15:41:52.961Z,100288.77
2018-09-13T15:44:21.207Z,100290.13
2018-09-13T15:46:49.252Z,100286.77
2018-09-13T15:49:16.817Z,100287.19
2018-09-13T15:51:44.369Z,100292.50
2018-09-13T15:54:12.387Z,100288.30
2018-09-13T15:56:39.909Z,100295.10
2018-09-13T15:59:07.680Z,100302.55
2018-09-13T16:01:36.118Z,100296.45
2018-09-13T16:04:03.639Z,100295.47
2018-09-13T16:06:31.227Z,100292.45
2018-09-13T16:08:59.044Z,100297.00
2018-09-13T16:11:27.556Z,100292.30
2018-09-13T16:13:55.190Z,100296.97
2018-09-13T16:16:23.528Z,100300.01
2018-09-13T16:18:51.060Z,100296.11
2018-09-13T16:21:19.412Z,100295.23
2018-09-13T16:23:47.358Z,100296.08
2018-09-13T16:26:14.957Z,100292.02
2018-09-13T16:28:42.535Z,100291.66
2018-09-13T16:31:10.781Z,100296.69
2018-09-13T16:33:38.337Z,100290.59
2018-09-13T16:36:05.862Z,100291.42
2018-09-13T16:38:38.919Z,100289.90
2018-09-13T16:41:11.487Z,100291.09
2018-09-13T16:43:44.237Z,100291.73
2018-09-13T16:46:16.257Z,100295.27
2018-09-13T16:48:45.171Z,100298.64
2018-09-13T16:51:12.990Z,100295.27
2018-09-13T16:53:40.912Z,100292.88
2018-09-13T16:56:08.859Z,100299.77
2018-09-13T16:58:36.451Z,100298.39
2018-09-13T17:01:04.439Z,100294.50
2018-09-13T17:03:31.944Z,100303.38
2018-09-13T17:05:59.477Z,100298.95
2018-09-13T17:08:27.299Z,100298.23
2018-09-13T17:10:55.073Z,100301.89
2018-09-13T17:13:22.634Z,100307.87
2018-09-13T17:15:50.616Z,100310.50
2018-09-13T17:18:18.098Z,100310.55
2018-09-13T17:20:45.636Z,100308.75
2018-09-13T17:23:13.195Z,100315.02
2018-09-13T17:25:40.693Z,100318.79
2018-09-13T17:28:08.724Z,100311.77
2018-09-13T17:30:36.311Z,100317.88
2018-09-13T17:33:04.043Z,100321.28
2018-09-13T17:35:32.165Z,100323.69
2018-09-13T17:38:00.109Z,100324.05
2018-09-13T17:40:27.671Z,100319.55
2018-09-13T17:42:55.453Z,100318.73
2018-09-13T17:45:22.939Z,100313.91
2018-09-13T17:47:50.473Z,100316.49
2018-09-13T17:50:18.567Z,100318.35
2018-09-13T17:52:46.266Z,100321.09
2018-09-13T17:55:13.788Z,100330.00
2018-09-13T17:57:41.695Z,100322.34
2018-09-13T18:00:09.250Z,100324.70
2018-09-13T18:02:36.767Z,100322.37
2018-09-13T18:05:04.675Z,100331.52
2018-09-13T18:07:33.056Z,100330.26
2018-09-13T18:10:00.550Z,100326.93
2018-09-13T18:12:28.460Z,100331.90
2018-09-13T18:14:55.971Z,100330.74
2018-09-13T18:17:24.445Z,100331.65
2018-09-13T18:19:52.243Z,100337.80
2018-09-13T18:22:19.726Z,100335.67
2018-09-13T18:24:47.220Z,100336.04
2018-09-13T18:27:15.146Z,100330.37
2018-09-13T18:29:42.691Z,100328.23
2018-09-13T18:32:10.203Z,100333.42
2018-09-13T18:34:38.124Z,100343.92
2018-09-13T18:37:05.641Z,100345.17
2018-09-13T18:39:34.350Z,100347.80
2018-09-13T18:42:04.244Z,100344.55
2018-09-13T18:44:33.392Z,100352.36
2018-09-13T18:47:01.894Z,100360.31
2018-09-13T18:49:30.370Z,100355.53
2018-09-13T18:51:58.463Z,100358.23
2018-09-13T18:54:26.617Z,100360.28
2018-09-13T18:57:00.116Z,100363.50
2018-09-13T18:59:27.714Z,100361.00
2018-09-13T19:01:55.219Z,100368.23
2018-09-13T19:04:27.929Z,100361.12
2018-09-13T19:06:55.507Z,100369.91
2018-09-13T19:09:23.102Z,100369.91
2018-09-13T19:11:51.532Z,100375.19
2018-09-13T19:14:19.614Z,100373.03
2018-09-13T19:16:48.266Z,100375.41
2018-09-13T19:19:17.231Z,100378.84
2018-09-13T19:21:44.738Z,100372.20
2018-09-13T19:24:12.416Z,100381.81
2018-09-13T19:26:40.327Z,100383.27
2018-09-13T19:29:09.055Z,100387.21
2018-09-13T19:31:37.220Z,100379.58
2018-09-13T19:34:09.177Z,100381.31
2018-09-13T19:36:36.727Z,100382.54
2018-09-13T19:39:04.762Z,100386.95
2018-09-13T19:41:33.528Z,100384.19
2018-09-13T19:44:01.104Z,100390.77
2018-09-13T19:46:30.560Z,100392.22
2018-09-13T19:48:58.370Z,100394.19
2018-09-13T19:51:25.909Z,100392.50
2018-09-13T19:56:27.863Z,100398.23
2018-09-13T19:58:56.282Z,100397.30
2018-09-13T20:01:24.376Z,100399.85
2018-09-13T20:03:52.261Z,100409.13
2018-09-13T20:06:20.791Z,100403.30
2018-09-13T20:08:48.591Z,100411.20
2018-09-13T20:11:17.460Z,100408.09
2018-09-13T20:13:46.652Z,100407.38
2018-09-13T20:16:14.170Z,100409.06
2018-09-13T20:18:42.148Z,100409.80
2018-09-13T20:21:09.646Z,100408.73
2018-09-13T20:23:37.176Z,100409.23
2018-09-13T20:26:05.930Z,100404.38
2018-09-13T20:28:33.475Z,100404.25
2018-09-13T20:31:01.796Z,100407.19
2018-09-13T20:33:29.808Z,100408.39
2018-09-13T20:35:58.001Z,100402.92
2018-09-13T20:38:26.256Z,100401.84
2018-09-13T20:40:57.141Z,100404.28
2018-09-13T20:43:25.648Z,100396.16
2018-09-13T20:45:53.266Z,100401.36
2018-09-13T20:48:22.253Z,100402.34
2018-09-13T20:50:50.743Z,100395.56
2018-09-13T20:53:18.846Z,100397.13
2018-09-13T20:55:46.739Z,100393.14
2018-09-13T20:58:14.240Z,100396.54
2018-09-13T21:00:41.816Z,100392.29
2018-09-13T21:03:09.716Z,100388.90
2018-09-13T21:05:39.051Z,100391.69
2018-09-13T21:08:06.575Z,100392.05
2018-09-13T21:10:35.229Z,100393.98
2018-09-13T21:13:03.755Z,100397.25
2018-09-13T21:15:31.287Z,100395.45
2018-09-13T21:18:02.294Z,100395.34
2018-09-13T21:20:30.567Z,100386.45
2018-09-13T21:22:59.591Z,100395.56
2018-09-13T21:25:27.498Z,100392.44
2018-09-13T21:27:55.099Z,100392.30
2018-09-13T21:30:22.642Z,100400.69
2018-09-13T21:32:50.728Z,100396.94
2018-09-13T21:35:18.271Z,100398.75
2018-09-13T21:37:45.863Z,100396.80
2018-09-13T21:40:14.626Z,100398.98
2018-09-13T21:42:43.315Z,100398.16
2018-09-13T21:45:10.848Z,100395.46
2018-09-13T21:47:39.422Z,100392.44
2018-09-13T21:50:09.674Z,100399.12
2018-09-13T21:52:37.820Z,100405.65
2018-09-13T21:55:07.519Z,100411.24
2018-09-13T21:57:35.043Z,100399.84
2018-09-13T22:00:03.191Z,100409.30
2018-09-13T22:02:31.715Z,100403.59
2018-09-13T22:04:59.352Z,100405.66
2018-09-13T22:07:26.889Z,100409.30
2018-09-13T22:09:55.199Z,100410.27
2018-09-13T22:12:22.825Z,100409.30
2018-09-13T22:14:51.267Z,100415.36
2018-09-13T22:17:18.879Z,100414.13
2018-09-13T22:19:46.763Z,100416.94
2018-09-13T22:22:14.267Z,100417.80
2018-09-13T22:24:41.822Z,100416.36
2018-09-13T22:27:09.799Z,100415.84
2018-09-13T22:29:37.433Z,100415.88
2018-09-13T22:32:05.844Z,100424.35
2018-09-13T22:34:33.768Z,100416.73
2018-09-13T22:37:01.629Z,100424.13
2018-09-13T22:39:30.190Z,100426.31
2018-09-13T22:41:59.683Z,100430.68
2018-09-13T22:44:28.879Z,100434.66
2018-09-13T22:46:56.443Z,100431.38
2018-09-13T22:49:25.732Z,100435.12
2018-09-13T22:51:53.594Z,100434.25
2018-09-13T22:54:21.181Z,100429.87
2018-09-13T22:56:48.690Z,100424.03
2018-09-13T22:59:17.246Z,100426.80
2018-09-13T23:01:45.575Z,100432.48
2018-09-13T23:04:15.544Z,100430.24
2018-09-13T23:06:43.060Z,100435.09
2018-09-13T23:09:12.444Z,100433.00
2018-09-13T23:11:40.273Z,100430.94
2018-09-13T23:14:07.833Z,100435.41
2018-09-13T23:16:35.797Z,100431.41
2018-09-13T23:19:03.355Z,100430.34
2018-09-13T23:21:30.827Z,100444.03
2018-09-13T23:23:58.823Z,100440.17
2018-09-13T23:26:26.425Z,100442.59
2018-09-13T23:28:53.989Z,100445.41
2018-09-13T23:31:21.604Z,100446.50
2018-09-13T23:33:49.149Z,100441.58
2018-09-13T23:36:16.714Z,100439.06
2018-09-13T23:38:44.620Z,100437.72
2018-09-13T23:41:12.172Z,100433.47
2018-09-13T23:43:39.689Z,100438.69
2018-09-13T23:46:07.245Z,100442.86
2018-09-13T23:48:35.264Z,100443.94
2018-09-13T23:51:03.951Z,100448.91
2018-09-13T23:53:31.525Z,100445.05
2018-09-13T23:55:59.044Z,100442.95
2018-09-13T23:58:26.954Z,100445.97
